Time;durP1;ratioP1;P1;durP2;ratioP2;P2;SDS_P1;SDS_P2;PMS_P1;PMS_P2;Temp;Humidity;BMP_temperature;BMP_pressure;BME280_temperature;BME280_humidity;BME280_pressure;Samples;Min_cycle;Max_cycle;Signal;HPM_P1;HPM_P2
2022/11/16 00:02:10;;;;;;;2.30;2.10;;;10.80;99.90;;;;;;5048765;28;20409;-71
2022/11/16 00:04:36;;;;;;;2.03;1.80;;;10.80;99.90;;;;;;5049543;28;20444;-72
2022/11/16 00:07:02;;;;;;;3.70;1.80;;;10.90;99.90;;;;;;5049744;28;20817;-71
2022/11/16 00:09:30;;;;;;;2.30;1.70;;;11.00;99.90;;;;;;5049682;28;20409;-71
2022/11/16 00:11:58;;;;;;;3.67;1.83;;;11.00;99.90;;;;;;5045803;28;20431;-71
2022/11/16 00:14:26;;;;;;;3.40;1.77;;;11.00;99.90;;;;;;5050076;28;20515;-71
2022/11/16 00:16:52;;;;;;;2.60;1.80;;;11.00;99.90;;;;;;5050404;28;20385;-72
2022/11/16 00:19:18;;;;;;;2.00;1.80;;;10.90;99.90;;;;;;5050726;28;20382;-71
2022/11/16 00:21:43;;;;;;;2.00;1.80;;;10.90;99.90;;;;;;5050590;28;20403;-71
2022/11/16 00:24:14;;;;;;;2.10;1.90;;;10.90;99.90;;;;;;5046752;28;20418;-70
2022/11/16 00:26:40;;;;;;;2.00;1.80;;;11.00;99.90;;;;;;5048902;28;20397;-71
2022/11/16 00:29:08;;;;;;;2.60;1.80;;;11.00;99.90;;;;;;5046221;28;20546;-71
2022/11/16 00:31:34;;;;;;;1.55;1.30;;;11.00;99.90;;;;;;5049455;28;20409;-71
2022/11/16 00:33:59;;;;;;;1.87;1.53;;;11.10;99.90;;;;;;5048764;28;20454;-70
2022/11/16 00:36:25;;;;;;;1.60;1.40;;;11.20;99.90;;;;;;5049351;28;20495;-71
2022/11/16 00:38:52;;;;;;;2.60;1.65;;;11.30;99.90;;;;;;5049589;28;20409;-71
2022/11/16 00:41:18;;;;;;;1.42;1.33;;;11.30;99.90;;;;;;5050154;28;20381;-71
2022/11/16 00:43:44;;;;;;;1.83;1.30;;;11.40;99.90;;;;;;5047983;28;20917;-70
2022/11/16 00:46:09;;;;;;;2.97;1.10;;;11.30;99.90;;;;;;5049879;28;20398;-71
2022/11/16 00:48:35;;;;;;;1.50;1.40;;;11.40;99.90;;;;;;5060378;28;20384;-71
2022/11/16 00:51:00;;;;;;;2.20;1.30;;;11.40;99.90;;;;;;5039971;28;20455;-71
2022/11/16 00:53:26;;;;;;;2.40;1.40;;;11.40;99.90;;;;;;5047788;28;20902;-70
2022/11/16 00:55:51;;;;;;;1.10;1.00;;;11.30;99.90;;;;;;5048350;28;20416;-71
2022/11/16 00:58:17;;;;;;;1.20;1.10;;;11.50;99.90;;;;;;5048375;28;20496;-71
2022/11/16 01:00:43;;;;;;;1.00;0.70;;;11.60;99.90;;;;;;5048040;28;20421;-71
2022/11/16 01:03:08;;;;;;;1.20;1.10;;;11.80;99.90;;;;;;5048457;28;20503;-72
2022/11/16 01:05:34;;;;;;;1.48;1.15;;;11.70;99.90;;;;;;5049120;28;20481;-70
2022/11/16 01:08:00;;;;;;;1.20;0.90;;;11.80;99.90;;;;;;5052933;28;20856;-71
2022/11/16 01:10:26;;;;;;;1.00;0.80;;;11.70;99.90;;;;;;5049025;28;20447;-71
2022/11/16 01:12:52;;;;;;;1.00;0.90;;;11.70;99.90;;;;;;5048846;28;20476;-71
2022/11/16 01:15:20;;;;;;;2.10;0.90;;;11.70;99.90;;;;;;5051350;28;20413;-72
2022/11/16 01:17:45;;;;;;;1.10;1.00;;;11.80;99.90;;;;;;5053085;28;20859;-71
2022/11/16 01:20:14;;;;;;;2.07;1.00;;;11.70;99.90;;;;;;5051721;28;20462;-71
2022/11/16 01:22:40;;;;;;;1.27;0.80;;;11.70;99.90;;;;;;5051138;28;20435;-71
2022/11/16 01:25:07;;;;;;;1.10;1.00;;;11.60;99.90;;;;;;5051623;28;20455;-72
2022/11/16 01:27:32;;;;;;;3.10;1.10;;;11.70;99.90;;;;;;5052472;28;20459;-71
2022/11/16 01:29:58;;;;;;;1.20;1.00;;;11.90;99.90;;;;;;5051299;28;20505;-71
2022/11/16 01:32:24;;;;;;;1.00;0.90;;;11.80;99.90;;;;;;5052152;28;20420;-70
2022/11/16 01:34:49;;;;;;;1.42;1.00;;;11.70;99.90;;;;;;5049794;28;20811;-71
2022/11/16 01:37:16;;;;;;;0.98;0.90;;;11.80;99.90;;;;;;5053246;28;20409;-73
2022/11/16 01:39:41;;;;;;;1.50;1.20;;;11.90;99.90;;;;;;5059141;28;20432;-73
2022/11/16 01:42:19;;;;;;;1.47;1.10;;;11.90;99.90;;;;;;5052325;28;20437;-73
2022/11/16 01:44:44;;;;;;;1.77;1.30;;;11.90;99.90;;;;;;5050559;28;20492;-73
2022/11/16 01:47:16;;;;;;;1.50;1.23;;;11.90;99.90;;;;;;5034750;28;20848;-73
2022/11/16 01:49:47;;;;;;;1.60;1.10;;;11.90;99.90;;;;;;5051412;28;20428;-73
2022/11/16 01:52:17;;;;;;;1.50;1.40;;;11.90;99.90;;;;;;5052317;28;20405;-72
2022/11/16 01:54:46;;;;;;;1.00;0.75;;;11.90;99.90;;;;;;5051553;28;20451;-72
2022/11/16 01:57:20;;;;;;;0.77;0.70;;;12.00;99.90;;;;;;5050987;28;20439;-72
2022/11/16 01:59:47;;;;;;;0.93;0.70;;;12.10;99.90;;;;;;5051492;28;20822;-72
2022/11/16 02:02:13;;;;;;;1.70;0.80;;;12.10;99.90;;;;;;5051890;28;20416;-72
2022/11/16 02:04:39;;;;;;;1.37;0.80;;;12.20;99.90;;;;;;5051364;28;20771;-73
2022/11/16 02:11:01;;;;;;;1.30;0.60;;;12.10;99.90;;;;;;5046092;28;20452;-71
2022/11/16 02:13:35;;;;;;;1.48;0.70;;;12.10;99.90;;;;;;5032626;28;20401;-73
2022/11/16 02:16:48;;;;;;;0.85;0.77;;;12.10;99.90;;;;;;5047773;28;20436;-71
2022/11/16 02:19:32;;;;;;;0.80;0.70;;;11.90;99.90;;;;;;5010917;28;20397;-71
2022/11/16 02:22:19;;;;;;;1.58;0.55;;;12.00;99.90;;;;;;5052561;28;20929;-71
2022/11/16 02:25:04;;;;;;;1.98;0.60;;;11.90;99.90;;;;;;5051186;28;20776;-73
2022/11/16 02:28:00;;;;;;;0.80;0.80;;;11.90;99.90;;;;;;5031503;28;20426;-72
2022/11/16 02:30:25;;;;;;;0.80;0.80;;;11.80;99.90;;;;;;5035243;28;20516;-73
2022/11/16 02:32:59;;;;;;;1.40;0.87;;;11.90;99.90;;;;;;5050759;28;20476;-73
2022/11/16 02:35:31;;;;;;;1.25;0.80;;;11.80;99.90;;;;;;5051455;28;20412;-73
2022/11/16 02:38:02;;;;;;;1.00;0.80;;;11.80;99.90;;;;;;5057750;28;20487;-73
2022/11/16 02:40:30;;;;;;;0.80;0.80;;;11.80;99.90;;;;;;5051499;28;20428;-73
2022/11/16 02:43:07;;;;;;;0.70;0.70;;;11.80;99.90;;;;;;5050080;28;20455;-73
2022/11/16 02:45:37;;;;;;;1.45;0.73;;;11.80;99.90;;;;;;5043300;28;20401;-73
2022/11/16 02:48:07;;;;;;;0.80;0.70;;;11.90;99.90;;;;;;5051052;28;20408;-73
2022/11/16 02:50:35;;;;;;;0.95;0.52;;;11.90;99.90;;;;;;5031853;28;20429;-73
2022/11/16 02:53:02;;;;;;;0.63;0.60;;;11.80;99.90;;;;;;5049367;28;20429;-73
2022/11/16 02:55:31;;;;;;;0.80;0.75;;;11.80;99.90;;;;;;5050910;28;20480;-72
2022/11/16 02:58:02;;;;;;;0.60;0.60;;;11.80;99.90;;;;;;5050621;28;20437;-71
2022/11/16 03:00:45;;;;;;;1.27;0.80;;;11.90;99.90;;;;;;5073242;22;20852;-71
2022/11/16 03:03:25;;;;;;;1.40;0.70;;;11.80;99.90;;;;;;5080800;28;20390;-71
2022/11/16 03:05:56;;;;;;;1.42;0.88;;;11.90;99.90;;;;;;5081214;28;20398;-69
2022/11/16 03:08:25;;;;;;;1.00;0.90;;;11.80;99.90;;;;;;5089310;28;20874;-71
2022/11/16 03:13:41;;;;;;;1.67;0.80;;;11.80;99.90;;;;;;5071329;28;20405;-69
2022/11/16 03:16:16;;;;;;;1.27;0.70;;;11.70;99.90;;;;;;5081765;28;20498;-70
2022/11/16 03:18:43;;;;;;;1.10;0.80;;;11.70;99.90;;;;;;5077701;28;20414;-70
2022/11/16 03:21:17;;;;;;;0.90;0.60;;;11.50;99.90;;;;;;5071777;28;20406;-71
2022/11/16 03:23:44;;;;;;;0.60;0.50;;;11.60;99.90;;;;;;5086101;28;20671;-71
2022/11/16 03:26:14;;;;;;;1.40;0.70;;;11.70;99.90;;;;;;5076275;28;20407;-70
2022/11/16 03:28:51;;;;;;;0.52;0.40;;;11.70;99.90;;;;;;5075870;28;20953;-71
2022/11/16 03:31:33;;;;;;;0.90;0.50;;;11.70;99.90;;;;;;5075440;28;20488;-71
2022/11/16 03:34:04;;;;;;;1.27;0.50;;;11.60;99.90;;;;;;5072773;28;20410;-70
2022/11/16 03:36:34;;;;;;;0.80;0.70;;;11.70;99.90;;;;;;5067599;28;20468;-71
2022/11/16 03:39:08;;;;;;;0.57;0.47;;;11.60;99.90;;;;;;5077203;28;20394;-71
2022/11/16 03:41:36;;;;;;;0.98;0.50;;;11.70;99.90;;;;;;5070250;28;20408;-71
2022/11/16 03:44:03;;;;;;;0.60;0.40;;;11.70;99.90;;;;;;5081905;28;20389;-71
2022/11/16 03:46:29;;;;;;;0.55;0.43;;;11.60;99.90;;;;;;5073165;28;20421;-71
2022/11/16 03:48:57;;;;;;;0.80;0.50;;;11.60;99.90;;;;;;5082740;28;20880;-71
2022/11/16 03:51:23;;;;;;;0.60;0.50;;;11.70;99.90;;;;;;5081508;28;20872;-71
2022/11/16 03:53:49;;;;;;;1.10;0.43;;;11.70;99.90;;;;;;5068250;28;20402;-72
2022/11/16 03:56:14;;;;;;;0.80;0.50;;;11.60;99.90;;;;;;5074816;28;20390;-70
2022/11/16 03:58:40;;;;;;;1.30;0.70;;;11.50;99.90;;;;;;5071869;28;20397;-71
2022/11/16 04:01:05;;;;;;;1.10;0.50;;;11.60;99.90;;;;;;5080855;28;20444;-71
2022/11/16 04:03:31;;;;;;;0.60;0.40;;;11.70;99.90;;;;;;5072808;28;20451;-71
2022/11/16 04:25:24;;;;;;;0.50;0.40;;;11.70;99.90;;;;;;5059162;28;20822;-70
2022/11/16 04:38:47;;;;;;;2.25;0.70;;;11.60;99.90;;;;;;5069555;28;20454;-70
2022/11/16 04:42:13;;;;;;;1.27;0.40;;;11.60;99.90;;;;;;5068051;28;20491;-70
2022/11/16 04:43:58;;;;;;;0.80;0.70;;;11.60;99.90;;;;;;5081026;28;20401;-72
2022/11/16 04:49:08;;;;;;;2.50;0.80;;;11.50;99.90;;;;;;5070733;28;20478;-70
2022/11/16 04:51:33;;;;;;;0.80;0.70;;;11.50;99.90;;;;;;5071692;28;20480;-70
2022/11/16 04:53:59;;;;;;;1.20;0.70;;;11.50;99.90;;;;;;5075149;28;20400;-70
2022/11/16 04:56:24;;;;;;;1.50;0.60;;;11.50;99.90;;;;;;5076427;28;21664;-69
2022/11/16 04:58:50;;;;;;;1.90;0.60;;;11.60;99.90;;;;;;5080327;28;20382;-69
2022/11/16 05:01:15;;;;;;;1.43;0.70;;;11.60;99.90;;;;;;5060970;28;20424;-70
2022/11/16 05:03:41;;;;;;;1.73;0.80;;;11.50;99.90;;;;;;5066361;28;20826;-69
2022/11/16 05:06:07;;;;;;;1.80;0.55;;;11.60;99.90;;;;;;5065627;28;20506;-70
2022/11/16 05:08:32;;;;;;;1.60;0.85;;;11.60;99.90;;;;;;5081873;28;20382;-69
2022/11/16 05:10:58;;;;;;;1.60;0.70;;;11.60;99.90;;;;;;5071831;28;20831;-70
2022/11/16 05:13:23;;;;;;;2.20;0.90;;;11.60;99.90;;;;;;5070733;28;20452;-69
2022/11/16 05:15:49;;;;;;;2.17;0.80;;;11.60;99.90;;;;;;5054659;28;20897;-68
2022/11/16 05:18:14;;;;;;;0.80;0.50;;;11.50;99.90;;;;;;5059136;28;20776;-69
2022/11/16 05:26:08;;;;;;;1.92;1.15;;;11.60;99.90;;;;;;5077048;28;20433;-69
2022/11/16 05:28:33;;;;;;;2.30;0.90;;;11.60;99.90;;;;;;5066829;28;20389;-69
2022/11/16 05:30:59;;;;;;;2.97;0.90;;;11.50;99.90;;;;;;5063616;28;20403;-69
2022/11/16 05:33:24;;;;;;;1.90;0.97;;;11.60;99.90;;;;;;5066513;28;20405;-70
2022/11/16 05:35:50;;;;;;;3.23;0.90;;;11.70;99.90;;;;;;5053527;28;20422;-70
2022/11/16 05:38:17;;;;;;;4.30;0.90;;;11.60;99.90;;;;;;5066306;28;20408;-69
2022/11/16 05:40:43;;;;;;;4.70;1.20;;;11.60;99.90;;;;;;5071224;28;20924;-69
2022/11/16 05:43:08;;;;;;;2.63;0.73;;;11.70;99.90;;;;;;5069387;28;20488;-68
2022/11/16 05:45:34;;;;;;;1.88;1.02;;;11.70;99.90;;;;;;5055966;28;20438;-69
2022/11/16 05:47:59;;;;;;;3.00;0.87;;;11.80;99.90;;;;;;5074499;28;20399;-69
2022/11/16 05:50:25;;;;;;;2.80;0.80;;;11.80;99.90;;;;;;5076139;28;20408;-67
2022/11/16 05:52:50;;;;;;;1.70;1.00;;;11.70;99.90;;;;;;5063288;28;21038;-68
2022/11/16 05:55:16;;;;;;;3.67;0.75;;;11.80;99.90;;;;;;5059182;28;20415;-68
2022/11/16 05:57:41;;;;;;;2.63;0.90;;;11.80;99.90;;;;;;5070326;28;20934;-68
2022/11/16 06:00:08;;;;;;;4.83;1.50;;;11.80;99.90;;;;;;5072519;28;20384;-68
2022/11/16 06:02:33;;;;;;;2.40;0.93;;;11.80;99.90;;;;;;5069574;28;20901;-68
2022/11/16 06:04:59;;;;;;;5.00;1.05;;;11.70;99.90;;;;;;5065023;28;20470;-68
2022/11/16 06:07:24;;;;;;;5.17;1.30;;;11.70;99.90;;;;;;5064261;28;20425;-68
2022/11/16 06:09:51;;;;;;;3.87;1.00;;;11.70;99.90;;;;;;5069587;28;20968;-69
2022/11/16 06:12:16;;;;;;;3.75;1.00;;;11.80;99.90;;;;;;5068703;28;20399;-69
2022/11/16 06:14:42;;;;;;;3.38;1.10;;;11.80;99.90;;;;;;5067644;28;20441;-68
2022/11/16 06:17:09;;;;;;;2.07;1.20;;;11.60;99.90;;;;;;5064843;28;20947;-69
2022/11/16 06:19:34;;;;;;;3.33;1.60;;;11.70;99.90;;;;;;5067666;28;20404;-69
2022/11/16 06:22:00;;;;;;;2.90;1.10;;;11.70;99.90;;;;;;5067442;28;20403;-68
2022/11/16 06:24:25;;;;;;;3.70;1.90;;;11.70;99.90;;;;;;5076107;28;20449;-68
2022/11/16 06:26:51;;;;;;;3.33;1.08;;;11.70;99.90;;;;;;5065342;28;20416;-69
2022/11/16 06:29:16;;;;;;;4.97;1.20;;;11.70;99.90;;;;;;5061957;28;20505;-68
2022/11/16 06:31:42;;;;;;;2.20;1.00;;;11.60;99.90;;;;;;5070236;28;20435;-69
2022/11/16 06:34:08;;;;;;;2.30;1.10;;;11.70;99.90;;;;;;5067578;28;20806;-70
2022/11/16 06:36:33;;;;;;;3.80;1.13;;;11.70;99.90;;;;;;5080146;28;20437;-69
2022/11/16 06:39:02;;;;;;;1.90;1.10;;;11.70;99.90;;;;;;5071203;28;20470;-72
2022/11/16 06:41:28;;;;;;;2.45;0.82;;;11.70;99.90;;;;;;5070622;28;20403;-73
2022/11/16 06:43:53;;;;;;;3.00;1.10;;;11.60;99.90;;;;;;5071235;28;20384;-70
2022/11/16 06:46:19;;;;;;;2.97;1.10;;;11.60;99.90;;;;;;5072339;28;20909;-71
2022/11/16 06:48:44;;;;;;;2.65;1.20;;;11.60;99.90;;;;;;5071923;28;20953;-71
2022/11/16 06:51:10;;;;;;;2.50;1.10;;;11.70;99.90;;;;;;5071889;28;20811;-70
2022/11/16 06:53:36;;;;;;;3.90;1.10;;;11.60;99.90;;;;;;5066473;28;20749;-71
2022/11/16 06:56:05;;;;;;;1.17;1.00;;;11.60;99.90;;;;;;5066787;28;20896;-70
2022/11/16 06:58:31;;;;;;;2.08;1.42;;;11.60;99.90;;;;;;5059512;28;20410;-70
2022/11/16 07:01:03;;;;;;;3.25;1.40;;;11.60;99.90;;;;;;5071272;28;20406;-70
2022/11/16 07:03:30;;;;;;;1.48;1.17;;;11.60;99.90;;;;;;5070892;28;20427;-70
2022/11/16 07:05:56;;;;;;;2.60;1.20;;;11.60;99.90;;;;;;5071681;28;20396;-70
2022/11/16 07:08:21;;;;;;;4.10;1.73;;;11.60;99.90;;;;;;5084202;28;20402;-69
2022/11/16 07:10:47;;;;;;;4.57;1.07;;;11.50;99.90;;;;;;5085756;28;20824;-68
2022/11/16 07:13:12;;;;;;;3.00;1.60;;;11.60;99.90;;;;;;5070921;28;20418;-68
2022/11/16 07:15:38;;;;;;;3.50;1.00;;;11.60;99.90;;;;;;5069184;28;20446;-69
2022/11/16 07:18:05;;;;;;;3.40;1.00;;;11.60;99.90;;;;;;5069657;28;20392;-70
2022/11/16 07:20:31;;;;;;;1.40;0.80;;;11.60;99.90;;;;;;5069683;28;20380;-69
2022/11/16 07:22:59;;;;;;;3.58;1.20;;;11.60;99.90;;;;;;5071384;28;20384;-70
2022/11/16 07:25:25;;;;;;;2.63;1.38;;;11.60;99.90;;;;;;5070902;28;21096;-70
2022/11/16 07:27:50;;;;;;;2.80;1.40;;;11.50;99.90;;;;;;5075764;28;20410;-69
2022/11/16 07:30:16;;;;;;;2.67;0.75;;;11.50;99.90;;;;;;5067120;28;20453;-68
2022/11/16 07:32:41;;;;;;;1.75;0.80;;;11.50;99.90;;;;;;5069275;28;20526;-69
2022/11/16 07:35:07;;;;;;;2.03;1.00;;;11.40;99.90;;;;;;5070002;28;20471;-69
2022/11/16 07:37:33;;;;;;;2.30;0.87;;;11.40;99.90;;;;;;5058839;28;20413;-69
2022/11/16 07:39:58;;;;;;;3.13;0.80;;;11.40;99.90;;;;;;5072928;28;21069;-69
2022/11/16 07:42:26;;;;;;;2.60;0.90;;;11.30;99.90;;;;;;5059994;28;20434;-69
2022/11/16 07:44:52;;;;;;;3.17;0.80;;;11.30;99.90;;;;;;5073410;28;20439;-70
2022/11/16 07:47:17;;;;;;;2.33;0.90;;;11.30;99.90;;;;;;5057357;28;20413;-69
2022/11/16 07:49:43;;;;;;;2.85;1.00;;;11.20;99.90;;;;;;5060137;28;20428;-70
2022/11/16 07:52:09;;;;;;;3.90;0.80;;;11.30;99.90;;;;;;5064739;28;20954;-70
2022/11/16 07:54:35;;;;;;;3.75;1.00;;;11.30;99.90;;;;;;5051993;28;21657;-70
2022/11/16 07:57:01;;;;;;;1.90;0.77;;;11.30;99.90;;;;;;5074580;28;20449;-70
2022/11/16 07:59:27;;;;;;;2.63;0.80;;;11.30;99.90;;;;;;5067105;28;20799;-70
2022/11/16 08:01:54;;;;;;;1.48;0.88;;;11.30;99.90;;;;;;5077343;28;20394;-70
2022/11/16 08:04:20;;;;;;;1.60;0.60;;;11.30;99.90;;;;;;5075115;28;20407;-70
2022/11/16 08:06:46;;;;;;;4.55;0.80;;;11.30;99.90;;;;;;5069790;28;20518;-70
2022/11/16 08:09:12;;;;;;;2.13;0.70;;;11.20;99.90;;;;;;5072720;28;20405;-69
2022/11/16 08:11:38;;;;;;;2.63;0.77;;;11.30;99.90;;;;;;5072517;28;20424;-70
2022/11/16 08:14:04;;;;;;;3.20;0.80;;;11.30;99.90;;;;;;5086932;28;20405;-68
2022/11/16 08:16:32;;;;;;;1.50;0.60;;;11.30;99.90;;;;;;5090998;28;20388;-68
2022/11/16 08:18:58;;;;;;;1.83;1.00;;;11.30;99.90;;;;;;5091015;28;20801;-68
2022/11/16 08:21:23;;;;;;;1.90;0.90;;;11.40;99.90;;;;;;5090939;28;20408;-68
2022/11/16 08:23:49;;;;;;;2.33;1.10;;;11.40;99.90;;;;;;5090095;28;20386;-70
2022/11/16 08:26:18;;;;;;;2.57;1.13;;;11.50;99.90;;;;;;5091086;28;20401;-70
2022/11/16 08:28:45;;;;;;;2.60;0.85;;;11.50;99.90;;;;;;5090756;28;20378;-70
2022/11/16 08:31:20;;;;;;;2.58;1.17;;;11.50;99.90;;;;;;5090799;28;20378;-69
2022/11/16 08:33:46;;;;;;;1.40;0.77;;;11.50;99.90;;;;;;5090303;28;20481;-70
2022/11/16 08:36:16;;;;;;;4.03;1.30;;;11.60;99.90;;;;;;5089407;28;20395;-70
2022/11/16 08:38:43;;;;;;;3.55;0.90;;;11.70;99.90;;;;;;5090745;28;20797;-70
2022/11/16 08:41:09;;;;;;;1.45;0.82;;;11.80;99.90;;;;;;5072919;28;20442;-70
2022/11/16 08:43:34;;;;;;;3.07;0.90;;;11.80;99.90;;;;;;5069806;28;20433;-70
2022/11/16 08:46:00;;;;;;;2.10;0.80;;;11.80;99.90;;;;;;5070199;28;20399;-70
2022/11/16 08:48:26;;;;;;;2.43;0.70;;;11.70;99.90;;;;;;5070478;28;20384;-69
2022/11/16 08:50:51;;;;;;;2.60;0.97;;;11.80;99.90;;;;;;5070173;28;20450;-69
2022/11/16 08:53:17;;;;;;;2.78;0.95;;;11.90;99.90;;;;;;5069713;28;20458;-70
2022/11/16 08:55:42;;;;;;;3.38;0.90;;;11.90;99.90;;;;;;5070327;28;20484;-70
2022/11/16 08:58:09;;;;;;;2.75;0.88;;;11.80;99.90;;;;;;5070352;28;20414;-71
2022/11/16 09:00:35;;;;;;;3.90;1.40;;;11.80;99.90;;;;;;5092582;22;20432;-71
2022/11/16 09:03:01;;;;;;;3.88;0.93;;;11.80;99.90;;;;;;5069221;28;20380;-72
2022/11/16 09:05:26;;;;;;;3.57;1.00;;;11.80;99.90;;;;;;5069904;28;20446;-71
2022/11/16 09:07:52;;;;;;;2.70;0.87;;;12.00;99.90;;;;;;5068080;28;20410;-70
2022/11/16 09:10:21;;;;;;;4.97;0.90;;;12.00;99.90;;;;;;5061329;28;20496;-71
2022/11/16 09:12:47;;;;;;;3.15;1.08;;;12.10;99.90;;;;;;5048362;28;20778;-70
2022/11/16 09:15:13;;;;;;;3.38;1.02;;;12.10;99.90;;;;;;5067178;28;20500;-70
2022/11/16 09:17:38;;;;;;;2.88;0.90;;;12.10;99.90;;;;;;5068315;28;20417;-70
2022/11/16 09:20:05;;;;;;;3.00;1.05;;;12.10;99.90;;;;;;5066740;28;20398;-70
2022/11/16 09:22:30;;;;;;;4.05;1.30;;;12.10;99.90;;;;;;5065946;28;20410;-70
2022/11/16 09:24:56;;;;;;;3.95;1.30;;;12.20;99.90;;;;;;5066776;28;20909;-71
2022/11/16 09:27:21;;;;;;;3.67;1.60;;;12.20;99.90;;;;;;5067770;28;20414;-69
2022/11/16 09:29:47;;;;;;;3.50;0.90;;;12.30;99.90;;;;;;5071233;28;20395;-69
2022/11/16 09:32:12;;;;;;;2.77;0.90;;;12.30;99.90;;;;;;5063417;28;20412;-70
2022/11/16 09:34:38;;;;;;;3.00;1.10;;;12.40;99.90;;;;;;5070515;28;20940;-69
2022/11/16 09:37:03;;;;;;;5.15;1.13;;;12.50;99.90;;;;;;5073135;28;20384;-69
2022/11/16 09:39:31;;;;;;;1.97;0.70;;;12.60;99.90;;;;;;5070118;28;20909;-69
2022/11/16 09:42:18;;;;;;;1.50;0.80;;;12.70;99.90;;;;;;5070014;28;20404;-69
2022/11/16 09:44:57;;;;;;;1.77;0.80;;;12.70;99.90;;;;;;5071517;28;20485;-69
2022/11/16 09:47:31;;;;;;;3.38;1.00;;;12.60;99.90;;;;;;5070882;28;20390;-68
2022/11/16 09:50:00;;;;;;;4.00;0.93;;;12.60;99.90;;;;;;5072561;28;20838;-68
2022/11/16 09:52:47;;;;;;;3.78;1.10;;;12.70;99.90;;;;;;5069375;28;20457;-68
2022/11/16 09:55:33;;;;;;;2.33;0.90;;;12.60;99.90;;;;;;5070015;28;20395;-69
2022/11/16 09:58:01;;;;;;;4.78;1.35;;;12.80;99.90;;;;;;5072166;28;20380;-68
2022/11/16 10:00:29;;;;;;;3.03;1.00;;;12.90;99.90;;;;;;5070609;28;20418;-68
2022/11/16 10:03:05;;;;;;;2.88;1.52;;;13.00;99.90;;;;;;5066992;28;20392;-68
2022/11/16 10:05:36;;;;;;;2.10;0.80;;;13.00;99.90;;;;;;5052867;28;20409;-70
2022/11/16 10:08:11;;;;;;;3.55;1.02;;;13.00;99.90;;;;;;5062980;28;20770;-71
2022/11/16 10:10:42;;;;;;;5.53;1.08;;;13.10;99.90;;;;;;5070864;28;20389;-70
2022/11/16 10:13:26;;;;;;;4.30;1.45;;;13.20;99.90;;;;;;5072160;28;20379;-71
2022/11/16 10:16:18;;;;;;;3.40;1.00;;;13.40;99.90;;;;;;5072362;28;20398;-70
2022/11/16 10:18:56;;;;;;;1.80;0.95;;;13.60;99.90;;;;;;5071746;28;20465;-70
2022/11/16 10:21:37;;;;;;;4.80;1.10;;;13.80;99.90;;;;;;5072378;28;20387;-70
2022/11/16 10:24:30;;;;;;;3.42;1.10;;;13.80;99.90;;;;;;5071750;28;20383;-70
2022/11/16 10:27:18;;;;;;;2.45;1.20;;;13.90;99.90;;;;;;5072539;28;20395;-70
2022/11/16 10:30:01;;;;;;;2.10;0.90;;;13.90;99.90;;;;;;5072604;28;20384;-70
2022/11/16 10:32:33;;;;;;;4.45;1.70;;;13.60;99.90;;;;;;5072028;28;20429;-68
2022/11/16 10:35:10;;;;;;;3.20;1.00;;;13.40;99.90;;;;;;5067818;28;20407;-71
2022/11/16 10:37:45;;;;;;;3.92;1.15;;;13.40;99.90;;;;;;5064271;28;20405;-70
2022/11/16 10:40:28;;;;;;;3.10;0.93;;;13.50;99.90;;;;;;5072350;28;20383;-71
2022/11/16 10:43:13;;;;;;;3.60;1.50;;;13.30;99.90;;;;;;5071625;28;20434;-70
2022/11/16 10:45:48;;;;;;;4.60;1.27;;;13.50;99.90;;;;;;5071978;28;20408;-70
2022/11/16 10:48:28;;;;;;;2.60;0.80;;;13.80;99.90;;;;;;5072292;28;20384;-71
2022/11/16 10:50:54;;;;;;;2.38;0.70;;;13.90;99.90;;;;;;5070415;28;20406;-71
2022/11/16 10:53:46;;;;;;;2.78;1.10;;;13.40;99.90;;;;;;5071345;28;20384;-70
2022/11/16 10:56:18;;;;;;;2.90;1.00;;;13.60;99.90;;;;;;5069801;28;20399;-70
2022/11/16 10:59:06;;;;;;;3.00;0.80;;;14.00;99.90;;;;;;5071970;28;20383;-70
2022/11/16 11:01:42;;;;;;;3.20;0.80;;;14.10;99.90;;;;;;5070440;28;20396;-70
2022/11/16 11:04:19;;;;;;;2.90;1.13;;;14.70;99.90;;;;;;5071136;28;20966;-70
2022/11/16 11:07:00;;;;;;;2.10;0.68;;;15.00;99.90;;;;;;5071481;28;20403;-71
2022/11/16 11:09:31;;;;;;;3.35;1.08;;;15.30;99.90;;;;;;5071775;28;20533;-70
2022/11/16 11:14:56;;;;;;;4.50;1.30;;;14.80;99.90;;;;;;5071129;28;20375;-70
2022/11/16 11:17:21;;;;;;;4.97;1.42;;;14.60;99.90;;;;;;5071467;28;20785;-69
2022/11/16 11:20:06;;;;;;;2.72;1.10;;;14.30;99.90;;;;;;5071564;28;20395;-71
2022/11/16 11:22:34;;;;;;;2.33;1.00;;;14.30;99.90;;;;;;5070981;28;20435;-70
2022/11/16 11:25:02;;;;;;;4.10;1.10;;;14.60;99.90;;;;;;5070109;28;20410;-70
2022/11/16 11:27:37;;;;;;;3.70;1.00;;;14.70;99.90;;;;;;5071424;28;20394;-70
2022/11/16 11:30:02;;;;;;;2.67;1.10;;;14.60;99.90;;;;;;5071326;28;20505;-70
2022/11/16 11:32:37;;;;;;;4.70;1.00;;;14.60;99.90;;;;;;5070768;28;20467;-70
2022/11/16 11:35:05;;;;;;;2.50;1.00;;;14.70;99.90;;;;;;5071298;28;20392;-71
2022/11/16 11:37:36;;;;;;;3.22;0.90;;;14.20;99.90;;;;;;5071242;28;20414;-70
2022/11/16 11:40:24;;;;;;;4.28;0.90;;;14.00;99.90;;;;;;5070959;28;20999;-70
2022/11/16 11:42:53;;;;;;;2.05;0.70;;;13.80;99.90;;;;;;5052325;28;20480;-70
2022/11/16 11:45:23;;;;;;;2.75;0.90;;;14.50;99.90;;;;;;5052943;28;20800;-70
2022/11/16 11:47:59;;;;;;;3.70;0.70;;;14.90;99.90;;;;;;5070959;28;20384;-71
2022/11/16 11:50:54;;;;;;;2.58;1.10;;;15.70;99.90;;;;;;5068501;28;20383;-70
2022/11/16 11:53:42;;;;;;;1.80;0.77;;;15.50;98.80;;;;;;5070145;28;20380;-71
2022/11/16 11:56:11;;;;;;;2.90;0.80;;;14.30;99.90;;;;;;5070468;28;20410;-70
2022/11/16 11:58:38;;;;;;;1.52;0.80;;;13.70;99.90;;;;;;5070713;28;20388;-70
2022/11/16 12:01:26;;;;;;;1.70;0.70;;;13.80;99.90;;;;;;5070355;28;20396;-70
2022/11/16 12:04:06;;;;;;;1.90;0.90;;;14.30;99.90;;;;;;5068284;28;20414;-70
2022/11/16 12:06:56;;;;;;;2.05;0.70;;;14.40;99.90;;;;;;5066766;28;20404;-72
2022/11/16 12:09:43;;;;;;;2.00;0.70;;;14.60;99.90;;;;;;5063715;28;20403;-71
2022/11/16 12:12:24;;;;;;;2.38;0.95;;;14.90;99.90;;;;;;5064552;28;20707;-71
2022/11/16 12:15:22;;;;;;;2.00;0.88;;;15.40;99.90;;;;;;5067769;28;20395;-70
2022/11/16 12:17:57;;;;;;;2.70;1.10;;;16.30;97.80;;;;;;5062321;28;20418;-70
2022/11/16 12:20:35;;;;;;;1.00;0.70;;;17.10;95.10;;;;;;5068305;28;20391;-71
2022/11/16 12:23:09;;;;;;;2.20;0.82;;;17.30;93.80;;;;;;5069036;28;20403;-72
2022/11/16 12:25:58;;;;;;;2.50;0.70;;;17.70;92.80;;;;;;5050221;28;20404;-71
2022/11/16 12:28:55;;;;;;;1.70;0.70;;;18.40;87.90;;;;;;5044478;28;20450;-71
2022/11/16 12:31:36;;;;;;;3.03;0.90;;;16.70;92.30;;;;;;5064594;28;20425;-71
2022/11/16 12:34:08;;;;;;;2.20;0.90;;;15.80;95.70;;;;;;5066241;28;20398;-70
2022/11/16 12:37:19;;;;;;;1.65;0.80;;;15.10;99.90;;;;;;5050699;28;20824;-70
2022/11/16 12:40:03;;;;;;;2.13;0.80;;;14.90;99.90;;;;;;5057938;28;20407;-70
2022/11/16 12:42:36;;;;;;;1.80;0.80;;;14.60;99.90;;;;;;5069369;28;20452;-73
2022/11/16 12:45:30;;;;;;;2.58;0.50;;;14.30;99.90;;;;;;5070268;28;20758;-70
2022/11/16 12:48:29;;;;;;;1.10;0.90;;;14.70;99.90;;;;;;5064432;28;20897;-71
2022/11/16 12:51:18;;;;;;;1.73;0.80;;;14.50;99.90;;;;;;5070103;28;20384;-70
2022/11/16 12:54:27;;;;;;;1.70;0.60;;;14.80;99.90;;;;;;5069383;28;20780;-71
2022/11/16 12:57:24;;;;;;;1.23;0.60;;;14.70;99.90;;;;;;5070103;28;20375;-70
2022/11/16 13:00:04;;;;;;;2.15;0.75;;;14.70;99.90;;;;;;5015439;28;20839;-71
2022/11/16 13:02:48;;;;;;;1.70;0.85;;;14.50;99.90;;;;;;5072912;28;20387;-71
2022/11/16 13:05:19;;;;;;;1.70;0.77;;;14.50;99.90;;;;;;5074072;28;20438;-71
2022/11/16 13:08:03;;;;;;;2.78;0.77;;;14.50;99.90;;;;;;5055535;28;20529;-70
2022/11/16 13:10:33;;;;;;;2.72;0.70;;;14.40;99.90;;;;;;5067356;28;20403;-70
2022/11/16 13:13:11;;;;;;;1.60;0.60;;;14.20;99.90;;;;;;5069366;28;20944;-71
2022/11/16 13:15:39;;;;;;;2.22;0.70;;;14.20;99.90;;;;;;5067619;28;20410;-70
2022/11/16 13:18:11;;;;;;;1.60;0.80;;;14.00;99.90;;;;;;5065015;28;20510;-70
2022/11/16 13:20:47;;;;;;;2.25;0.85;;;14.20;99.90;;;;;;5073331;28;20474;-70
2022/11/16 13:23:17;;;;;;;2.17;0.65;;;14.30;99.90;;;;;;5071878;28;20384;-71
2022/11/16 13:26:26;;;;;;;2.70;0.80;;;14.50;99.90;;;;;;5070914;28;20411;-70
2022/11/16 13:29:10;;;;;;;2.45;0.70;;;14.30;99.90;;;;;;5046126;28;20752;-71
2022/11/16 13:31:56;;;;;;;4.07;1.10;;;14.20;99.90;;;;;;5071495;28;20433;-70
2022/11/16 13:34:30;;;;;;;2.60;0.90;;;14.10;99.90;;;;;;5072938;28;20388;-71
2022/11/16 13:36:56;;;;;;;2.50;0.90;;;14.10;99.90;;;;;;5073263;28;20726;-70
2022/11/16 13:39:56;;;;;;;2.90;1.00;;;14.20;99.90;;;;;;5073411;28;20380;-70
2022/11/16 13:42:22;;;;;;;1.67;1.00;;;14.10;99.90;;;;;;5065144;28;20436;-70
2022/11/16 13:44:48;;;;;;;4.03;1.10;;;14.00;99.90;;;;;;5070221;28;20447;-69
2022/11/16 13:47:31;;;;;;;1.33;0.80;;;13.90;99.90;;;;;;5069784;28;20395;-70
2022/11/16 13:50:00;;;;;;;1.60;0.80;;;13.90;99.90;;;;;;5065033;28;20427;-71
2022/11/16 13:52:47;;;;;;;2.78;0.90;;;13.90;99.90;;;;;;5070127;28;20415;-70
2022/11/16 13:55:24;;;;;;;1.50;0.70;;;14.10;99.90;;;;;;5067432;28;20526;-70
2022/11/16 13:57:52;;;;;;;1.90;1.00;;;14.90;99.90;;;;;;5070675;28;20403;-70